createdAt,value
2023-02-04T00:01:32.155Z,63.50
2023-02-04T00:06:35.562Z,63.42
2023-02-04T00:11:40.304Z,63.47
2023-02-04T00:16:43.642Z,63.30
2023-02-04T00:21:47.099Z,63.23
2023-02-04T00:26:51.847Z,62.99
2023-02-04T00:31:55.305Z,62.97
2023-02-04T00:36:58.679Z,62.82
2023-02-04T00:42:03.549Z,62.97
2023-02-04T00:47:06.831Z,62.87
2023-02-04T00:52:10.356Z,64.09
2023-02-04T00:57:15.218Z,63.96
2023-02-04T01:02:18.778Z,63.12
2023-02-04T01:07:22.321Z,63.82
2023-02-04T01:12:28.812Z,63.52
2023-02-04T01:17:32.645Z,63.97
2023-02-04T01:22:36.401Z,63.94
2023-02-04T01:27:41.224Z,63.93
2023-02-04T01:32:44.416Z,62.62
2023-02-04T01:37:47.721Z,63.29
2023-02-04T01:42:52.901Z,62.92
2023-02-04T01:47:56.563Z,63.51
2023-02-04T01:53:00.671Z,63.61
2023-02-04T01:58:05.489Z,63.16
2023-02-04T02:03:11.124Z,62.86
2023-02-04T02:08:15.977Z,62.75
2023-02-04T02:13:20.667Z,62.28
2023-02-04T02:18:25.525Z,62.18
2023-02-04T02:23:34.437Z,62.68
2023-02-04T02:28:39.328Z,62.35
2023-02-04T02:33:42.635Z,62.47
2023-02-04T02:38:46.175Z,62.24
2023-02-04T02:43:50.914Z,61.96
2023-02-04T02:48:54.278Z,61.74
2023-02-04T02:53:57.945Z,61.87
2023-02-04T02:59:14.753Z,62.08
2023-02-04T03:04:20.383Z,62.12
2023-02-04T03:09:25.961Z,61.95
2023-02-04T03:14:31.134Z,62.44
2023-02-04T03:19:36.554Z,62.54
2023-02-04T03:24:40.328Z,63.07
2023-02-04T03:29:46.868Z,63.09
2023-02-04T03:34:50.455Z,63.41
2023-02-04T03:39:53.942Z,62.82
2023-02-04T03:44:58.814Z,62.69
2023-02-04T03:50:01.944Z,62.41
2023-02-04T03:55:06.983Z,62.93
2023-02-04T04:00:14.829Z,62.70
2023-02-04T04:05:18.473Z,62.77
2023-02-04T04:10:21.960Z,63.07
2023-02-04T04:15:26.776Z,62.93
2023-02-04T04:20:30.462Z,62.81
2023-02-04T04:25:34.400Z,62.39
2023-02-04T04:30:39.271Z,62.99
2023-02-04T04:35:42.356Z,62.74
2023-02-04T04:40:45.614Z,62.95
2023-02-04T04:45:50.333Z,62.94
2023-02-04T04:50:53.800Z,62.87
2023-02-04T04:55:57.168Z,63.31
2023-02-04T05:01:01.968Z,62.93
2023-02-04T05:06:05.215Z,62.48
2023-02-04T05:11:08.492Z,63.11
2023-02-04T05:16:13.492Z,63.07
2023-02-04T05:21:16.928Z,63.54
2023-02-04T05:26:29.942Z,63.16
2023-02-04T05:31:35.805Z,63.46
2023-02-04T05:36:39.229Z,63.86
2023-02-04T05:41:42.707Z,63.91
2023-02-04T05:46:47.455Z,64.01
2023-02-04T05:51:50.919Z,63.33
2023-02-04T05:56:54.379Z,62.83
2023-02-04T06:01:59.150Z,62.04
2023-02-04T06:07:03.454Z,61.83
2023-02-04T06:12:07.281Z,62.08
2023-02-04T06:17:12.033Z,61.48
2023-02-04T06:22:15.501Z,60.96
2023-02-04T06:27:23.418Z,60.33
2023-02-04T06:32:28.593Z,59.95
2023-02-04T06:37:31.926Z,60.05
2023-02-04T06:42:35.523Z,60.22
2023-02-04T06:47:40.534Z,60.29
2023-02-04T06:52:43.882Z,58.52
2023-02-04T06:57:47.477Z,58.24
2023-02-04T07:02:53.008Z,59.19
2023-02-04T07:07:56.737Z,59.04
2023-02-04T07:13:00.132Z,56.96
2023-02-04T07:18:05.508Z,56.49
2023-02-04T07:23:08.813Z,55.81
2023-02-04T07:28:12.426Z,56.30
2023-02-04T07:33:17.225Z,55.25
2023-02-04T07:38:20.888Z,55.19
2023-02-04T07:43:24.269Z,55.60
2023-02-04T07:48:29.258Z,56.06
2023-02-04T07:53:32.351Z,55.87
2023-02-04T07:58:36.026Z,55.10
2023-02-04T08:03:41.860Z,54.57
2023-02-04T08:08:45.493Z,54.93
2023-02-04T08:13:48.958Z,54.84
2023-02-04T08:18:53.733Z,54.21
2023-02-04T08:23:57.122Z,53.51
2023-02-04T08:29:00.707Z,53.09
2023-02-04T08:34:06.424Z,54.10
2023-02-04T08:39:10.035Z,54.69
2023-02-04T08:44:13.566Z,54.51
2023-02-04T08:49:18.555Z,53.71
2023-02-04T08:54:21.736Z,53.90
2023-02-04T08:59:26.376Z,54.51
2023-02-04T09:04:32.058Z,54.71
2023-02-04T09:09:35.661Z,54.15
2023-02-04T09:14:39.203Z,55.36
2023-02-04T09:19:44.180Z,54.40
2023-02-04T09:24:47.457Z,54.15
2023-02-04T09:29:51.004Z,55.19
2023-02-04T09:34:55.916Z,55.16
2023-02-04T09:39:59.192Z,53.82
2023-02-04T09:45:03.761Z,53.61
2023-02-04T09:50:14.804Z,53.67
2023-02-04T09:55:20.779Z,54.56
2023-02-04T10:00:26.580Z,54.71
2023-02-04T10:05:33.526Z,54.85
2023-02-04T10:10:37.158Z,55.09
2023-02-04T10:15:40.635Z,55.69
2023-02-04T10:20:45.429Z,55.80
2023-02-04T10:25:48.787Z,54.46
2023-02-04T10:30:52.534Z,55.30
2023-02-04T10:35:58.722Z,55.66
2023-02-04T10:41:03.136Z,55.92
2023-02-04T10:46:06.731Z,55.15
2023-02-04T10:51:14.702Z,55.05
2023-02-04T10:56:21.864Z,55.86
2023-02-04T11:01:30.088Z,55.89
2023-02-04T11:06:35.093Z,56.12
2023-02-04T11:11:38.932Z,55.07
2023-02-04T11:16:49.897Z,55.79
2023-02-04T11:22:05.704Z,55.53
2023-02-04T11:27:22.431Z,55.66
2023-02-04T11:32:33.260Z,55.89
2023-02-04T11:37:40.919Z,55.79
2023-02-04T11:42:44.243Z,55.68
2023-02-04T11:47:48.672Z,55.52
2023-02-04T11:52:55.453Z,56.07
2023-02-04T11:57:59.701Z,55.54
2023-02-04T12:03:06.398Z,55.30
2023-02-04T12:08:29.163Z,55.22
2023-02-04T12:13:33.669Z,55.34
2023-02-04T12:18:37.018Z,55.96
2023-02-04T12:23:43.294Z,55.67
2023-02-04T12:28:46.856Z,56.06
2023-02-04T12:33:50.402Z,56.25
2023-02-04T12:38:55.754Z,56.30
2023-02-04T12:44:01.518Z,56.06
2023-02-04T12:49:05.207Z,57.13
2023-02-04T12:54:10.192Z,56.13
2023-02-04T12:59:13.755Z,56.78
2023-02-04T13:04:17.220Z,56.71
2023-02-04T13:09:22.262Z,56.96
2023-02-04T13:14:25.739Z,56.66
2023-02-04T13:19:29.356Z,57.12
2023-02-04T13:24:34.112Z,56.89
2023-02-04T13:29:37.773Z,57.41
2023-02-04T13:34:41.191Z,57.14
2023-02-04T13:39:46.157Z,56.85
2023-02-04T13:44:49.310Z,57.10
2023-02-04T13:49:53.142Z,57.71
2023-02-04T13:54:58.074Z,57.31
2023-02-04T14:00:01.467Z,56.56
2023-02-04T14:05:05.319Z,57.72
2023-02-04T14:10:11.028Z,57.58
2023-02-04T14:15:14.470Z,57.25
2023-02-04T14:20:18.015Z,57.39
2023-02-04T14:25:23.579Z,58.09
2023-02-04T14:30:29.804Z,57.80
2023-02-04T14:35:33.472Z,57.68
2023-02-04T14:40:38.940Z,58.15
2023-02-04T14:45:42.843Z,57.48
2023-02-04T14:50:46.526Z,57.65
2023-02-04T14:55:51.425Z,58.20
2023-02-04T15:00:54.760Z,58.12
2023-02-04T15:05:58.234Z,58.42
2023-02-04T15:11:03.245Z,58.39
2023-02-04T15:16:07.231Z,58.42
2023-02-04T15:21:11.537Z,58.60
2023-02-04T15:26:16.837Z,58.26
2023-02-04T15:31:20.637Z,57.92
2023-02-04T15:36:24.197Z,58.21
2023-02-04T15:41:29.200Z,58.13
2023-02-04T15:46:33.060Z,58.85
2023-02-04T15:51:36.742Z,58.52
2023-02-04T15:56:43.671Z,58.77
2023-02-04T16:01:48.006Z,58.26
2023-02-04T16:06:58.507Z,58.62
2023-02-04T16:12:04.264Z,59.08
2023-02-04T16:17:10.008Z,58.84
2023-02-04T16:22:13.498Z,58.90
2023-02-04T16:27:18.722Z,58.81
2023-02-04T16:32:22.731Z,58.94
2023-02-04T16:37:26.293Z,58.97
2023-02-04T16:42:31.595Z,58.63
2023-02-04T16:47:35.328Z,59.02
2023-02-04T16:52:38.655Z,58.52
2023-02-04T16:57:43.837Z,58.79
2023-02-04T17:02:47.238Z,58.32
2023-02-04T17:07:50.805Z,58.43
2023-02-04T17:12:55.538Z,58.37
2023-02-04T17:17:59.118Z,58.46
2023-02-04T17:23:02.562Z,58.10
2023-02-04T17:28:07.825Z,58.02
2023-02-04T17:33:11.428Z,57.82
2023-02-04T17:38:15.116Z,57.94
2023-02-04T17:43:19.867Z,57.83
2023-02-04T17:48:23.531Z,57.68
2023-02-04T17:53:26.900Z,57.55
2023-02-04T17:58:32.886Z,58.04
2023-02-04T18:03:36.466Z,57.97
2023-02-04T18:08:42.129Z,57.36
2023-02-04T18:13:48.684Z,57.41
2023-02-04T18:18:53.712Z,57.68
2023-02-04T18:24:06.420Z,57.83
2023-02-04T18:29:30.966Z,57.94
2023-02-04T18:34:38.788Z,57.91
2023-02-04T18:39:42.717Z,57.67
2023-02-04T18:44:47.896Z,57.71
2023-02-04T18:49:51.638Z,58.04
2023-02-04T18:54:56.067Z,57.69
2023-02-04T19:00:34.912Z,57.59
2023-02-04T19:05:44.270Z,57.71
2023-02-04T19:10:47.904Z,57.82
2023-02-04T19:16:02.505Z,57.90
2023-02-04T19:21:20.497Z,57.79
2023-02-04T19:26:30.357Z,57.58
2023-02-04T19:31:35.895Z,57.84
2023-02-04T19:36:40.233Z,57.64
2023-02-04T19:41:49.565Z,57.82
2023-02-04T19:46:55.126Z,58.12
2023-02-04T19:52:00.474Z,58.29
2023-02-04T19:57:04.069Z,58.13
2023-02-04T20:02:34.714Z,58.07
2023-02-04T20:07:39.994Z,58.07
2023-02-04T20:12:43.297Z,58.23
2023-02-04T20:17:49.240Z,58.52
2023-02-04T20:22:55.023Z,58.08
2023-02-04T20:28:09.838Z,57.95
2023-02-04T20:33:34.630Z,58.30
2023-02-04T20:38:38.186Z,58.48
2023-02-04T20:43:42.371Z,58.72
2023-02-04T20:48:48.942Z,58.39
2023-02-04T20:53:53.896Z,58.93
2023-02-04T20:59:04.575Z,58.46
2023-02-04T21:04:21.500Z,58.51
2023-02-04T21:09:26.420Z,58.67
2023-02-04T21:14:29.951Z,58.78
2023-02-04T21:19:35.553Z,58.54
2023-02-04T21:24:39.075Z,58.32
2023-02-04T21:29:42.639Z,58.42
2023-02-04T21:34:47.603Z,58.32
2023-02-04T21:39:51.201Z,57.94
2023-02-04T21:44:54.601Z,57.62
2023-02-04T21:49:59.574Z,57.62
2023-02-04T21:55:02.904Z,57.61
2023-02-04T22:00:10.797Z,57.28
2023-02-04T22:05:15.674Z,57.55
2023-02-04T22:10:20.230Z,57.22
2023-02-04T22:15:24.470Z,56.99
2023-02-04T22:20:30.467Z,56.96
2023-02-04T22:25:34.307Z,56.77
2023-02-04T22:30:38.292Z,56.81
2023-02-04T22:35:43.270Z,56.95
2023-02-04T22:40:48.788Z,57.03
2023-02-04T22:45:51.896Z,56.88
2023-02-04T22:50:56.972Z,56.86
2023-02-04T22:56:00.319Z,57.01
2023-02-04T23:01:03.966Z,56.87
2023-02-04T23:06:09.178Z,57.23
2023-02-04T23:11:13.288Z,57.24
2023-02-04T23:16:16.962Z,57.39
2023-02-04T23:21:23.207Z,57.03
2023-02-04T23:26:26.806Z,56.47
2023-02-04T23:31:30.394Z,56.67
2023-02-04T23:36:36.949Z,56.58
2023-02-04T23:41:40.519Z,56.60
2023-02-04T23:46:44.593Z,56.90
2023-02-04T23:51:49.688Z,57.13
2023-02-04T23:56:54.222Z,56.38
